Weather at Sappi / Ngodwana

Public forecast

Using degrees Celsius for public forecast. Weather courtesy of forecast.io.

Closest aviation weather report (METAR) to Sappi / Ngodwana

Closest report is Kruger Mpumalanga International Airport, 29.0 nm (53.6 km) ENE. Retrieved 2020/10/01 17:58 UTC (22 minutes ago):

FAKN 011758Z 05008KT 4000 -DZ BR OVC010 17/15 Q1021 TEMPO 1500 OVC005

Closest aviation forecast (TAF) to Sappi / Ngodwana

Forecast is more than 12 hours old.

Closest forecast is Kruger Mpumalanga International Airport, 29.0 nm (53.6 km) ENE. Retrieved 2017/06/05 04:55 UTC (3 years ago):

TAF FAKN 050300Z 0504/0515 25006KT CAVOK BECMG 0511/0513 13005KT SCT030 BECMG 0513/0515 07005KT TX22/0513ZTN08/0504Z